Terminal Aerodrome Forecast
Issued by NWS

Home | Current Version | Previous Version | Graphics & Text | Print | Product List | Glossary Off
Versions: 1 2 3 4 5 6 7 8 9 10 11 12 13 14 15

000
FTUS43 KMPX 252123 AAA
TAFRWF
TAF AMD
KRWF 252123Z 2521/2618 20012KT P6SM VCSH SCT040 OVC060
     FM252200 21010KT 6SM SHRA VCTS SCT040 OVC080CB
      TEMPO 2522/2602 2SM TSRA SCT020CB OVC040
     FM260600 28005KT P6SM OVC040
      TEMPO 2610/2614 5SM SHRA OVC025
     FM261500 36007KT P6SM OVC040=

USA.gov is the U.S. government's official web portal to all federal, state and local government web resources and services.